Forside
METAR-TAF:

METAR-TAF

Lufthavne :

Belfast City, Nordirland

Breddekreds: 54-36N, længdekreds: 005-53W, højde: 5 m

Aktuelle vejr

Denne rapport blev lavet for 32 minutter siden, kl. 13:20 UTC
Vind 7 kt fra nordnordøst
Temperatur 9°C
Fugtighed 66%
Tryk 1035 hPa
Sigt 10 km eller mere

METAR: EGAC 311320Z AUTO 02007KT 9999 OVC034/// 09/03 Q1035

Tid: 14:52 (13:52 UTC)

Vejrudsigter

Denne rapport blev lavet for 2 timer og 50 minutter siden, kl. 11:02 UTC
Foreløbig gælder fra 31 på 12 UTC til 31 på 21 UTC
Vind 6 kt fra nord
Sigt 10 km eller mere
Nogle få skyer i en højde af 2000 ft
Spredte skyer i en højde af 3000 ft

TAF: EGAC 311102Z 3112/3121 01006KT 9999 FEW020 SCT030

Vejrobservationer og prognoser fra mere end 4000 lufthavne (METAR og TAF).

De gule og røde prikker repræsenterer de meteorologiske stationer.

Flyt musen over at se navnet på stationen.

Så klik over at se vejr observationer og prognoser.

At skifte det kort: Klik på de grønne knapper med et sort kors for at zoome ind; på den grønne knap med en bindestreg for at zoome ud; eller på de grønne pile for tilstødende kort.


METAR-TAF: